sensor_id;sensor_type;location;lat;lon;timestamp;temperature;humidity
10247;DHT22;5168;47.854;7.944;2023-05-07T00:09:07;11.40;99.90
10247;DHT22;5168;47.854;7.944;2023-05-07T00:11:33;11.10;99.90
10247;DHT22;5168;47.854;7.944;2023-05-07T00:13:58;10.90;99.90
10247;DHT22;5168;47.854;7.944;2023-05-07T00:16:24;10.70;99.90
10247;DHT22;5168;47.854;7.944;2023-05-07T00:28:34;11.40;99.90
10247;DHT22;5168;47.854;7.944;2023-05-07T00:33:25;11.10;99.90
10247;DHT22;5168;47.854;7.944;2023-05-07T00:35:52;11.20;99.90
10247;DHT22;5168;47.854;7.944;2023-05-07T00:38:19;11.50;99.90
10247;DHT22;5168;47.854;7.944;2023-05-07T00:45:38;11.10;99.90
10247;DHT22;5168;47.854;7.944;2023-05-07T00:48:04;11.50;99.90
10247;DHT22;5168;47.854;7.944;2023-05-07T00:50:30;11.90;99.90
10247;DHT22;5168;47.854;7.944;2023-05-07T00:52:56;11.40;99.90
10247;DHT22;5168;47.854;7.944;2023-05-07T00:55:23;11.10;99.90
10247;DHT22;5168;47.854;7.944;2023-05-07T00:57:50;11.60;99.90
10247;DHT22;5168;47.854;7.944;2023-05-07T01:00:16;11.40;99.90
10247;DHT22;5168;47.854;7.944;2023-05-07T01:02:42;11.10;99.90
10247;DHT22;5168;47.854;7.944;2023-05-07T01:05:10;11.60;99.90
10247;DHT22;5168;47.854;7.944;2023-05-07T01:07:37;11.10;99.90
10247;DHT22;5168;47.854;7.944;2023-05-07T01:10:05;14.20;99.90
10247;DHT22;5168;47.854;7.944;2023-05-07T01:12:31;11.20;99.90
10247;DHT22;5168;47.854;7.944;2023-05-07T01:14:58;11.50;99.90
10247;DHT22;5168;47.854;7.944;2023-05-07T01:17:23;11.20;99.90
10247;DHT22;5168;47.854;7.944;2023-05-07T01:19:49;11.50;99.90
10247;DHT22;5168;47.854;7.944;2023-05-07T01:22:16;11.40;99.90
10247;DHT22;5168;47.854;7.944;2023-05-07T01:24:45;11.80;99.90
10247;DHT22;5168;47.854;7.944;2023-05-07T01:32:03;11.50;99.90
10247;DHT22;5168;47.854;7.944;2023-05-07T01:34:32;11.10;99.90
10247;DHT22;5168;47.854;7.944;2023-05-07T01:36:59;11.20;99.90
10247;DHT22;5168;47.854;7.944;2023-05-07T01:39:26;11.50;99.90
10247;DHT22;5168;47.854;7.944;2023-05-07T01:41:54;11.50;99.90
10247;DHT22;5168;47.854;7.944;2023-05-07T01:44:21;11.60;99.90
10247;DHT22;5168;47.854;7.944;2023-05-07T01:46:47;11.10;99.90
10247;DHT22;5168;47.854;7.944;2023-05-07T01:49:13;11.60;99.90
10247;DHT22;5168;47.854;7.944;2023-05-07T01:51:40;11.60;99.90
10247;DHT22;5168;47.854;7.944;2023-05-07T01:54:05;11.70;99.90
10247;DHT22;5168;47.854;7.944;2023-05-07T01:56:31;11.20;99.90
10247;DHT22;5168;47.854;7.944;2023-05-07T01:58:57;11.80;99.90
10247;DHT22;5168;47.854;7.944;2023-05-07T02:01:23;11.30;99.90
10247;DHT22;5168;47.854;7.944;2023-05-07T02:08:40;11.70;99.90
10247;DHT22;5168;47.854;7.944;2023-05-07T02:11:06;11.40;99.90
10247;DHT22;5168;47.854;7.944;2023-05-07T02:13:33;11.00;99.90
10247;DHT22;5168;47.854;7.944;2023-05-07T02:16:00;11.50;99.90
10247;DHT22;5168;47.854;7.944;2023-05-07T02:18:25;11.00;99.90
10247;DHT22;5168;47.854;7.944;2023-05-07T02:23:17;11.40;99.90
10247;DHT22;5168;47.854;7.944;2023-05-07T02:25:42;11.70;99.90
10247;DHT22;5168;47.854;7.944;2023-05-07T02:28:08;11.10;99.90
10247;DHT22;5168;47.854;7.944;2023-05-07T02:37:52;11.10;99.90
10247;DHT22;5168;47.854;7.944;2023-05-07T02:40:17;10.90;99.90
10247;DHT22;5168;47.854;7.944;2023-05-07T02:42:43;11.80;99.90
10247;DHT22;5168;47.854;7.944;2023-05-07T02:45:09;11.30;99.90
10247;DHT22;5168;47.854;7.944;2023-05-07T02:54:52;11.30;99.90
10247;DHT22;5168;47.854;7.944;2023-05-07T02:57:18;11.60;99.90
10247;DHT22;5168;47.854;7.944;2023-05-07T02:59:43;11.20;99.90
10247;DHT22;5168;47.854;7.944;2023-05-07T03:09:27;11.10;99.90
10247;DHT22;5168;47.854;7.944;2023-05-07T03:14:18;10.90;99.90
10247;DHT22;5168;47.854;7.944;2023-05-07T03:16:44;10.50;99.90
10247;DHT22;5168;47.854;7.944;2023-05-07T03:21:35;10.90;99.90
10247;DHT22;5168;47.854;7.944;2023-05-07T03:24:01;10.70;99.90
10247;DHT22;5168;47.854;7.944;2023-05-07T03:26:27;10.70;99.90
10247;DHT22;5168;47.854;7.944;2023-05-07T03:33:52;11.00;99.90
10247;DHT22;5168;47.854;7.944;2023-05-07T03:36:17;11.10;99.90
10247;DHT22;5168;47.854;7.944;2023-05-07T03:38:43;11.30;99.90
10247;DHT22;5168;47.854;7.944;2023-05-07T03:43:34;11.20;99.90
10247;DHT22;5168;47.854;7.944;2023-05-07T03:48:26;10.80;99.90
10247;DHT22;5168;47.854;7.944;2023-05-07T03:50:51;11.50;99.90
10247;DHT22;5168;47.854;7.944;2023-05-07T03:53:17;11.00;99.90
10247;DHT22;5168;47.854;7.944;2023-05-07T03:55:42;11.20;99.90
10247;DHT22;5168;47.854;7.944;2023-05-07T03:58:08;11.30;99.90
10247;DHT22;5168;47.854;7.944;2023-05-07T04:03:03;10.90;99.90
10247;DHT22;5168;47.854;7.944;2023-05-07T04:05:30;11.10;99.90
10247;DHT22;5168;47.854;7.944;2023-05-07T04:07:55;10.80;99.90
10247;DHT22;5168;47.854;7.944;2023-05-07T04:10:21;10.90;99.90
10247;DHT22;5168;47.854;7.944;2023-05-07T04:15:13;10.80;99.90
10247;DHT22;5168;47.854;7.944;2023-05-07T04:20:05;11.00;99.90
10247;DHT22;5168;47.854;7.944;2023-05-07T04:22:32;11.30;99.90
10247;DHT22;5168;47.854;7.944;2023-05-07T04:24:58;10.60;99.90
10247;DHT22;5168;47.854;7.944;2023-05-07T04:27:23;11.10;99.90
10247;DHT22;5168;47.854;7.944;2023-05-07T04:32:15;11.30;99.90
10247;DHT22;5168;47.854;7.944;2023-05-07T04:34:40;11.10;99.90
10247;DHT22;5168;47.854;7.944;2023-05-07T04:37:06;10.80;99.90
10247;DHT22;5168;47.854;7.944;2023-05-07T04:39:32;11.30;99.90
10247;DHT22;5168;47.854;7.944;2023-05-07T04:42:00;11.60;99.90
10247;DHT22;5168;47.854;7.944;2023-05-07T04:46:52;11.30;99.90
10247;DHT22;5168;47.854;7.944;2023-05-07T04:51:44;11.40;99.90
10247;DHT22;5168;47.854;7.944;2023-05-07T04:54:09;11.50;99.90
10247;DHT22;5168;47.854;7.944;2023-05-07T04:56:35;11.80;99.90
10247;DHT22;5168;47.854;7.944;2023-05-07T05:06:18;12.10;99.90
10247;DHT22;5168;47.854;7.944;2023-05-07T05:08:44;11.40;99.90
10247;DHT22;5168;47.854;7.944;2023-05-07T05:11:09;11.70;99.90
10247;DHT22;5168;47.854;7.944;2023-05-07T05:16:01;12.40;99.90
10247;DHT22;5168;47.854;7.944;2023-05-07T05:18:26;13.00;99.90
10247;DHT22;5168;47.854;7.944;2023-05-07T05:20:52;13.10;99.90
10247;DHT22;5168;47.854;7.944;2023-05-07T05:28:09;12.60;99.90
10247;DHT22;5168;47.854;7.944;2023-05-07T05:30:35;13.10;99.90
10247;DHT22;5168;47.854;7.944;2023-05-07T05:35:26;13.50;99.90
10247;DHT22;5168;47.854;7.944;2023-05-07T05:37:52;13.10;99.90
10247;DHT22;5168;47.854;7.944;2023-05-07T05:40:17;13.40;99.90
10247;DHT22;5168;47.854;7.944;2023-05-07T05:42:43;13.50;99.90
10247;DHT22;5168;47.854;7.944;2023-05-07T05:54:53;13.80;99.90
10247;DHT22;5168;47.854;7.944;2023-05-07T05:59:45;14.60;99.90
10247;DHT22;5168;47.854;7.944;2023-05-07T06:02:11;15.20;99.90
10247;DHT22;5168;47.854;7.944;2023-05-07T06:04:37;15.40;99.90
10247;DHT22;5168;47.854;7.944;2023-05-07T06:07:02;15.70;99.90
10247;DHT22;5168;47.854;7.944;2023-05-07T06:09:28;15.30;99.90
10247;DHT22;5168;47.854;7.944;2023-05-07T06:14:19;16.00;99.90
10247;DHT22;5168;47.854;7.944;2023-05-07T06:16:45;15.40;99.90
10247;DHT22;5168;47.854;7.944;2023-05-07T06:19:11;15.10;99.90
10247;DHT22;5168;47.854;7.944;2023-05-07T06:26:28;15.10;99.90
10247;DHT22;5168;47.854;7.944;2023-05-07T06:28:53;14.90;99.90
10247;DHT22;5168;47.854;7.944;2023-05-07T06:31:19;15.60;99.90
10247;DHT22;5168;47.854;7.944;2023-05-07T06:33:49;15.40;99.90
10247;DHT22;5168;47.854;7.944;2023-05-07T06:36:14;15.10;99.90
10247;DHT22;5168;47.854;7.944;2023-05-07T06:41:06;15.90;99.90
10247;DHT22;5168;47.854;7.944;2023-05-07T06:43:32;16.10;99.90
10247;DHT22;5168;47.854;7.944;2023-05-07T06:45:58;16.10;99.90
10247;DHT22;5168;47.854;7.944;2023-05-07T06:55:41;16.50;99.90
10247;DHT22;5168;47.854;7.944;2023-05-07T06:58:07;15.90;99.90
10247;DHT22;5168;47.854;7.944;2023-05-07T07:00:32;15.60;99.90
10247;DHT22;5168;47.854;7.944;2023-05-07T07:02:58;15.50;99.90
10247;DHT22;5168;47.854;7.944;2023-05-07T07:05:24;15.40;99.90
10247;DHT22;5168;47.854;7.944;2023-05-07T07:10:20;16.20;99.90
10247;DHT22;5168;47.854;7.944;2023-05-07T07:12:45;15.70;99.90
10247;DHT22;5168;47.854;7.944;2023-05-07T07:15:11;16.10;99.90
10247;DHT22;5168;47.854;7.944;2023-05-07T07:20:03;16.40;99.90
10247;DHT22;5168;47.854;7.944;2023-05-07T07:24:55;16.40;99.90
10247;DHT22;5168;47.854;7.944;2023-05-07T07:27:20;16.70;99.90
10247;DHT22;5168;47.854;7.944;2023-05-07T07:29:46;17.10;99.90
10247;DHT22;5168;47.854;7.944;2023-05-07T07:37:03;17.60;99.90
10247;DHT22;5168;47.854;7.944;2023-05-07T07:39:32;17.40;99.90
10247;DHT22;5168;47.854;7.944;2023-05-07T07:41:57;17.20;99.90
10247;DHT22;5168;47.854;7.944;2023-05-07T07:44:23;17.80;99.90
10247;DHT22;5168;47.854;7.944;2023-05-07T07:46:48;18.00;99.90
10247;DHT22;5168;47.854;7.944;2023-05-07T07:49:14;17.90;99.90
10247;DHT22;5168;47.854;7.944;2023-05-07T07:54:06;18.30;99.90
10247;DHT22;5168;47.854;7.944;2023-05-07T07:56:32;18.00;99.90
10247;DHT22;5168;47.854;7.944;2023-05-07T08:03:51;18.70;99.90
10247;DHT22;5168;47.854;7.944;2023-05-07T08:06:17;18.40;99.90
10247;DHT22;5168;47.854;7.944;2023-05-07T08:08:43;19.00;99.90
10247;DHT22;5168;47.854;7.944;2023-05-07T08:11:08;19.70;99.90
10247;DHT22;5168;47.854;7.944;2023-05-07T08:13:34;19.50;99.90
10247;DHT22;5168;47.854;7.944;2023-05-07T08:16:00;19.00;99.90
10247;DHT22;5168;47.854;7.944;2023-05-07T08:20:53;19.40;99.90
10247;DHT22;5168;47.854;7.944;2023-05-07T08:23:19;19.30;99.90
10247;DHT22;5168;47.854;7.944;2023-05-07T08:25:44;19.80;99.90
10247;DHT22;5168;47.854;7.944;2023-05-07T08:28:10;20.10;99.90
10247;DHT22;5168;47.854;7.944;2023-05-07T08:33:02;19.90;99.90
10247;DHT22;5168;47.854;7.944;2023-05-07T08:35:27;19.80;99.90
10247;DHT22;5168;47.854;7.944;2023-05-07T08:40:20;20.00;99.90
10247;DHT22;5168;47.854;7.944;2023-05-07T08:42:48;20.40;99.90
10247;DHT22;5168;47.854;7.944;2023-05-07T08:45:14;20.10;99.90
10247;DHT22;5168;47.854;7.944;2023-05-07T08:47:43;20.70;99.90
10247;DHT22;5168;47.854;7.944;2023-05-07T08:50:11;20.10;99.90
10247;DHT22;5168;47.854;7.944;2023-05-07T08:52:37;20.00;99.90
10247;DHT22;5168;47.854;7.944;2023-05-07T08:55:03;20.30;99.90
10247;DHT22;5168;47.854;7.944;2023-05-07T08:57:28;19.70;99.90
10247;DHT22;5168;47.854;7.944;2023-05-07T08:59:55;19.70;99.90
10247;DHT22;5168;47.854;7.944;2023-05-07T09:02:20;19.80;99.90
10247;DHT22;5168;47.854;7.944;2023-05-07T09:04:46;20.50;99.90
10247;DHT22;5168;47.854;7.944;2023-05-07T09:09:37;20.20;99.90
10247;DHT22;5168;47.854;7.944;2023-05-07T09:12:03;20.00;99.90
10247;DHT22;5168;47.854;7.944;2023-05-07T09:14:29;20.00;99.90
10247;DHT22;5168;47.854;7.944;2023-05-07T09:16:56;20.00;99.90
10247;DHT22;5168;47.854;7.944;2023-05-07T09:19:25;19.80;99.90
10247;DHT22;5168;47.854;7.944;2023-05-07T09:22:04;19.60;99.90
10247;DHT22;5168;47.854;7.944;2023-05-07T09:24:32;19.50;99.90
10247;DHT22;5168;47.854;7.944;2023-05-07T09:27:03;19.90;99.90
10247;DHT22;5168;47.854;7.944;2023-05-07T09:29:29;20.20;99.90
10247;DHT22;5168;47.854;7.944;2023-05-07T09:32:04;20.10;99.90
10247;DHT22;5168;47.854;7.944;2023-05-07T09:37:04;19.20;99.90
10247;DHT22;5168;47.854;7.944;2023-05-07T09:39:42;18.90;99.90
10247;DHT22;5168;47.854;7.944;2023-05-07T09:42:08;18.90;99.90
10247;DHT22;5168;47.854;7.944;2023-05-07T09:44:35;18.40;99.90
10247;DHT22;5168;47.854;7.944;2023-05-07T09:47:01;17.30;99.90
10247;DHT22;5168;47.854;7.944;2023-05-07T09:49:29;17.50;99.90
10247;DHT22;5168;47.854;7.944;2023-05-07T09:51:56;16.80;99.90
10247;DHT22;5168;47.854;7.944;2023-05-07T09:54:24;16.60;99.90
10247;DHT22;5168;47.854;7.944;2023-05-07T09:56:51;16.00;99.90
10247;DHT22;5168;47.854;7.944;2023-05-07T09:59:17;15.80;99.90
10247;DHT22;5168;47.854;7.944;2023-05-07T10:01:44;15.20;99.90
10247;DHT22;5168;47.854;7.944;2023-05-07T10:06:37;15.00;99.90
10247;DHT22;5168;47.854;7.944;2023-05-07T10:09:04;15.30;99.90
10247;DHT22;5168;47.854;7.944;2023-05-07T10:11:33;15.00;99.90
10247;DHT22;5168;47.854;7.944;2023-05-07T10:14:00;15.00;99.90
10247;DHT22;5168;47.854;7.944;2023-05-07T10:16:31;15.30;99.90
10247;DHT22;5168;47.854;7.944;2023-05-07T10:18:58;15.80;99.90
10247;DHT22;5168;47.854;7.944;2023-05-07T10:21:24;15.70;99.90
10247;DHT22;5168;47.854;7.944;2023-05-07T10:23:53;16.00;99.90
10247;DHT22;5168;47.854;7.944;2023-05-07T10:26:22;16.30;99.90
10247;DHT22;5168;47.854;7.944;2023-05-07T10:31:49;16.60;99.90
10247;DHT22;5168;47.854;7.944;2023-05-07T10:34:23;17.00;99.90
10247;DHT22;5168;47.854;7.944;2023-05-07T10:36:50;17.80;99.90
10247;DHT22;5168;47.854;7.944;2023-05-07T10:39:15;17.40;99.90
10247;DHT22;5168;47.854;7.944;2023-05-07T10:41:41;18.10;99.90
10247;DHT22;5168;47.854;7.944;2023-05-07T10:44:07;18.00;99.90
10247;DHT22;5168;47.854;7.944;2023-05-07T10:46:32;17.90;99.90
10247;DHT22;5168;47.854;7.944;2023-05-07T10:51:28;19.00;99.90
10247;DHT22;5168;47.854;7.944;2023-05-07T10:54:20;18.30;99.90
10247;DHT22;5168;47.854;7.944;2023-05-07T10:56:45;18.60;99.90
10247;DHT22;5168;47.854;7.944;2023-05-07T11:02:02;17.90;99.90
10247;DHT22;5168;47.854;7.944;2023-05-07T11:10:00;18.90;99.90
10247;DHT22;5168;47.854;7.944;2023-05-07T11:15:09;20.00;99.90
10247;DHT22;5168;47.854;7.944;2023-05-07T11:17:52;20.00;99.90
10247;DHT22;5168;47.854;7.944;2023-05-07T11:20:18;20.70;99.90
10247;DHT22;5168;47.854;7.944;2023-05-07T11:25:10;20.70;99.90
10247;DHT22;5168;47.854;7.944;2023-05-07T11:27:36;21.40;99.90
10247;DHT22;5168;47.854;7.944;2023-05-07T11:30:01;21.60;99.90
10247;DHT22;5168;47.854;7.944;2023-05-07T11:32:29;21.10;99.90
10247;DHT22;5168;47.854;7.944;2023-05-07T11:34:58;20.80;99.90
10247;DHT22;5168;47.854;7.944;2023-05-07T11:37:25;21.30;99.90
10247;DHT22;5168;47.854;7.944;2023-05-07T11:40:08;21.50;99.90
10247;DHT22;5168;47.854;7.944;2023-05-07T11:42:37;20.50;99.90
10247;DHT22;5168;47.854;7.944;2023-05-07T11:45:04;20.00;99.90
10247;DHT22;5168;47.854;7.944;2023-05-07T11:49:57;19.90;99.90
10247;DHT22;5168;47.854;7.944;2023-05-07T11:52:27;18.80;99.90
10247;DHT22;5168;47.854;7.944;2023-05-07T11:54:54;18.70;99.90
10247;DHT22;5168;47.854;7.944;2023-05-07T11:57:21;18.50;99.90
10247;DHT22;5168;47.854;7.944;2023-05-07T11:59:47;18.10;99.90
10247;DHT22;5168;47.854;7.944;2023-05-07T12:02:17;18.40;99.90
10247;DHT22;5168;47.854;7.944;2023-05-07T12:04:44;17.50;99.90
10247;DHT22;5168;47.854;7.944;2023-05-07T12:07:16;17.60;99.90
10247;DHT22;5168;47.854;7.944;2023-05-07T12:09:42;17.80;99.90
10247;DHT22;5168;47.854;7.944;2023-05-07T12:12:08;17.90;99.90
10247;DHT22;5168;47.854;7.944;2023-05-07T12:14:44;17.90;99.90
10247;DHT22;5168;47.854;7.944;2023-05-07T12:17:11;17.60;99.90
10247;DHT22;5168;47.854;7.944;2023-05-07T12:19:38;18.00;99.90
10247;DHT22;5168;47.854;7.944;2023-05-07T12:24:56;17.10;99.90
10247;DHT22;5168;47.854;7.944;2023-05-07T12:27:22;17.40;99.90
10247;DHT22;5168;47.854;7.944;2023-05-07T12:29:49;16.60;99.90
10247;DHT22;5168;47.854;7.944;2023-05-07T12:32:20;16.80;99.90
10247;DHT22;5168;47.854;7.944;2023-05-07T12:34:46;17.50;99.90
10247;DHT22;5168;47.854;7.944;2023-05-07T12:37:14;17.30;99.90
10247;DHT22;5168;47.854;7.944;2023-05-07T12:40:03;16.60;99.90
10247;DHT22;5168;47.854;7.944;2023-05-07T12:42:35;17.30;99.90
10247;DHT22;5168;47.854;7.944;2023-05-07T12:45:13;16.70;99.90
10247;DHT22;5168;47.854;7.944;2023-05-07T12:47:44;16.30;99.90
10247;DHT22;5168;47.854;7.944;2023-05-07T12:52:36;15.90;99.90
10247;DHT22;5168;47.854;7.944;2023-05-07T12:55:06;16.00;99.90
10247;DHT22;5168;47.854;7.944;2023-05-07T12:57:43;16.50;99.90
10247;DHT22;5168;47.854;7.944;2023-05-07T13:00:11;15.50;99.90
10247;DHT22;5168;47.854;7.944;2023-05-07T13:02:41;15.90;99.90
10247;DHT22;5168;47.854;7.944;2023-05-07T13:05:07;15.70;99.90
10247;DHT22;5168;47.854;7.944;2023-05-07T13:07:34;15.70;99.90
10247;DHT22;5168;47.854;7.944;2023-05-07T13:10:00;15.70;99.90
10247;DHT22;5168;47.854;7.944;2023-05-07T13:12:25;15.20;99.90
10247;DHT22;5168;47.854;7.944;2023-05-07T13:17:20;14.60;99.90
10247;DHT22;5168;47.854;7.944;2023-05-07T13:24:37;13.90;99.90
10247;DHT22;5168;47.854;7.944;2023-05-07T13:27:03;10.10;99.90
10247;DHT22;5168;47.854;7.944;2023-05-07T13:29:29;14.40;99.90
10247;DHT22;5168;47.854;7.944;2023-05-07T13:31:59;13.80;99.90
10247;DHT22;5168;47.854;7.944;2023-05-07T13:34:25;14.00;99.90
10247;DHT22;5168;47.854;7.944;2023-05-07T13:36:50;13.60;99.90
10247;DHT22;5168;47.854;7.944;2023-05-07T13:41:42;14.10;99.90
10247;DHT22;5168;47.854;7.944;2023-05-07T13:44:07;14.00;99.90
10247;DHT22;5168;47.854;7.944;2023-05-07T13:46:33;14.80;99.90
10247;DHT22;5168;47.854;7.944;2023-05-07T13:56:17;15.40;99.90
10247;DHT22;5168;47.854;7.944;2023-05-07T13:58:43;15.80;99.90
10247;DHT22;5168;47.854;7.944;2023-05-07T14:01:09;15.20;99.90
10247;DHT22;5168;47.854;7.944;2023-05-07T14:03:34;15.90;99.90
10247;DHT22;5168;47.854;7.944;2023-05-07T14:06:03;16.30;99.90
10247;DHT22;5168;47.854;7.944;2023-05-07T14:08:28;16.30;99.90
10247;DHT22;5168;47.854;7.944;2023-05-07T14:10:54;16.30;99.90
10247;DHT22;5168;47.854;7.944;2023-05-07T14:15:45;16.10;99.90
10247;DHT22;5168;47.854;7.944;2023-05-07T14:18:15;16.90;99.90
10247;DHT22;5168;47.854;7.944;2023-05-07T14:20:41;17.40;99.90
10247;DHT22;5168;47.854;7.944;2023-05-07T14:23:08;17.40;99.90
10247;DHT22;5168;47.854;7.944;2023-05-07T14:25:34;17.50;99.90
10247;DHT22;5168;47.854;7.944;2023-05-07T14:27:59;17.70;99.90
10247;DHT22;5168;47.854;7.944;2023-05-07T14:30:25;17.30;99.90
10247;DHT22;5168;47.854;7.944;2023-05-07T14:35:17;17.30;99.90
10247;DHT22;5168;47.854;7.944;2023-05-07T14:37:43;16.90;99.90
10247;DHT22;5168;47.854;7.944;2023-05-07T14:40:09;16.80;99.90
10247;DHT22;5168;47.854;7.944;2023-05-07T14:42:34;17.10;99.90
10247;DHT22;5168;47.854;7.944;2023-05-07T14:45:00;17.30;99.90
10247;DHT22;5168;47.854;7.944;2023-05-07T14:47:25;17.50;99.90
10247;DHT22;5168;47.854;7.944;2023-05-07T14:49:51;17.20;99.90
10247;DHT22;5168;47.854;7.944;2023-05-07T14:52:18;17.40;99.90
10247;DHT22;5168;47.854;7.944;2023-05-07T14:54:44;17.30;99.90
10247;DHT22;5168;47.854;7.944;2023-05-07T14:57:10;17.10;99.90
10247;DHT22;5168;47.854;7.944;2023-05-07T14:59:39;16.80;99.90
10247;DHT22;5168;47.854;7.944;2023-05-07T15:02:05;17.10;99.90
10247;DHT22;5168;47.854;7.944;2023-05-07T15:04:33;17.10;99.90
10247;DHT22;5168;47.854;7.944;2023-05-07T15:06:58;16.90;99.90
10247;DHT22;5168;47.854;7.944;2023-05-07T15:11:50;16.70;99.90
10247;DHT22;5168;47.854;7.944;2023-05-07T15:14:15;17.10;99.90
10247;DHT22;5168;47.854;7.944;2023-05-07T15:16:41;16.90;99.90
10247;DHT22;5168;47.854;7.944;2023-05-07T15:21:32;16.30;99.90
10247;DHT22;5168;47.854;7.944;2023-05-07T15:24:00;16.50;99.90
10247;DHT22;5168;47.854;7.944;2023-05-07T15:26:26;16.20;99.90
10247;DHT22;5168;47.854;7.944;2023-05-07T15:31:17;16.40;99.90
10247;DHT22;5168;47.854;7.944;2023-05-07T15:48:20;16.50;99.90
10247;DHT22;5168;47.854;7.944;2023-05-07T15:50:45;16.30;99.90
10247;DHT22;5168;47.854;7.944;2023-05-07T15:53:11;16.10;99.90
10247;DHT22;5168;47.854;7.944;2023-05-07T15:55:39;16.90;99.90
10247;DHT22;5168;47.854;7.944;2023-05-07T15:58:05;16.10;99.90
10247;DHT22;5168;47.854;7.944;2023-05-07T16:00:31;16.00;99.90
10247;DHT22;5168;47.854;7.944;2023-05-07T16:07:49;16.20;99.90
10247;DHT22;5168;47.854;7.944;2023-05-07T16:12:41;15.70;99.90
10247;DHT22;5168;47.854;7.944;2023-05-07T16:15:06;15.90;99.90
10247;DHT22;5168;47.854;7.944;2023-05-07T16:17:33;15.80;99.90
10247;DHT22;5168;47.854;7.944;2023-05-07T16:22:26;16.10;99.90
10247;DHT22;5168;47.854;7.944;2023-05-07T16:24:53;15.80;99.90
10247;DHT22;5168;47.854;7.944;2023-05-07T16:27:18;15.90;99.90
10247;DHT22;5168;47.854;7.944;2023-05-07T16:29:44;16.10;99.90
10247;DHT22;5168;47.854;7.944;2023-05-07T16:34:36;15.40;99.90
10247;DHT22;5168;47.854;7.944;2023-05-07T16:37:02;15.20;99.90
10247;DHT22;5168;47.854;7.944;2023-05-07T16:39:28;15.60;99.90
10247;DHT22;5168;47.854;7.944;2023-05-07T16:41:54;15.00;99.90
10247;DHT22;5168;47.854;7.944;2023-05-07T16:44:20;15.70;99.90
10247;DHT22;5168;47.854;7.944;2023-05-07T16:49:11;15.00;99.90
10247;DHT22;5168;47.854;7.944;2023-05-07T16:51:36;15.20;99.90
10247;DHT22;5168;47.854;7.944;2023-05-07T16:54:02;14.70;99.90
10247;DHT22;5168;47.854;7.944;2023-05-07T16:56:28;14.60;99.90
10247;DHT22;5168;47.854;7.944;2023-05-07T16:58:54;15.00;99.90
10247;DHT22;5168;47.854;7.944;2023-05-07T17:08:40;14.50;99.90
10247;DHT22;5168;47.854;7.944;2023-05-07T17:11:09;14.30;99.90
10247;DHT22;5168;47.854;7.944;2023-05-07T17:13:34;14.10;99.90
10247;DHT22;5168;47.854;7.944;2023-05-07T17:20:52;14.40;99.90
10247;DHT22;5168;47.854;7.944;2023-05-07T17:23:17;14.70;99.90
10247;DHT22;5168;47.854;7.944;2023-05-07T17:25:43;14.00;99.90
10247;DHT22;5168;47.854;7.944;2023-05-07T17:28:11;13.90;99.90
10247;DHT22;5168;47.854;7.944;2023-05-07T17:30:36;14.40;99.90
10247;DHT22;5168;47.854;7.944;2023-05-07T17:33:02;14.10;99.90
10247;DHT22;5168;47.854;7.944;2023-05-07T17:35:27;14.00;99.90
10247;DHT22;5168;47.854;7.944;2023-05-07T17:37:53;14.20;99.90
10247;DHT22;5168;47.854;7.944;2023-05-07T17:40:19;13.60;99.90
10247;DHT22;5168;47.854;7.944;2023-05-07T17:42:49;14.30;99.90
10247;DHT22;5168;47.854;7.944;2023-05-07T17:45:15;14.20;99.90
10247;DHT22;5168;47.854;7.944;2023-05-07T17:47:41;13.60;99.90
10247;DHT22;5168;47.854;7.944;2023-05-07T17:50:07;13.60;99.90
10247;DHT22;5168;47.854;7.944;2023-05-07T17:52:36;13.90;99.90
10247;DHT22;5168;47.854;7.944;2023-05-07T17:59:58;13.80;99.90
10247;DHT22;5168;47.854;7.944;2023-05-07T18:07:16;12.80;99.90
10247;DHT22;5168;47.854;7.944;2023-05-07T18:09:41;12.50;99.90
10247;DHT22;5168;47.854;7.944;2023-05-07T18:12:07;12.60;99.90
10247;DHT22;5168;47.854;7.944;2023-05-07T18:29:13;12.70;99.90
10247;DHT22;5168;47.854;7.944;2023-05-07T18:31:39;12.80;99.90
10247;DHT22;5168;47.854;7.944;2023-05-07T18:34:04;12.60;99.90
10247;DHT22;5168;47.854;7.944;2023-05-07T18:36:30;12.70;99.90
10247;DHT22;5168;47.854;7.944;2023-05-07T18:41:22;12.50;99.90
10247;DHT22;5168;47.854;7.944;2023-05-07T18:43:47;12.80;99.90
10247;DHT22;5168;47.854;7.944;2023-05-07T18:46:13;12.60;99.90
10247;DHT22;5168;47.854;7.944;2023-05-07T18:53:32;12.20;99.90
10247;DHT22;5168;47.854;7.944;2023-05-07T18:55:58;12.10;99.90
10247;DHT22;5168;47.854;7.944;2023-05-07T19:00:51;12.30;99.90
10247;DHT22;5168;47.854;7.944;2023-05-07T19:03:16;12.60;99.90
10247;DHT22;5168;47.854;7.944;2023-05-07T19:05:42;12.00;99.90
10247;DHT22;5168;47.854;7.944;2023-05-07T19:08:08;11.60;99.90
10247;DHT22;5168;47.854;7.944;2023-05-07T19:10:34;12.00;99.90
10247;DHT22;5168;47.854;7.944;2023-05-07T19:20:19;12.00;99.90
10247;DHT22;5168;47.854;7.944;2023-05-07T19:22:44;12.40;99.90
10247;DHT22;5168;47.854;7.944;2023-05-07T19:25:11;12.00;99.90
10247;DHT22;5168;47.854;7.944;2023-05-07T19:27:37;11.70;99.90
10247;DHT22;5168;47.854;7.944;2023-05-07T19:30:04;12.30;99.90
10247;DHT22;5168;47.854;7.944;2023-05-07T19:32:29;12.30;99.90
10247;DHT22;5168;47.854;7.944;2023-05-07T19:34:55;11.70;99.90
10247;DHT22;5168;47.854;7.944;2023-05-07T19:39:49;11.90;99.90
10247;DHT22;5168;47.854;7.944;2023-05-07T19:47:07;11.80;99.90
10247;DHT22;5168;47.854;7.944;2023-05-07T19:59:17;12.00;99.90
10247;DHT22;5168;47.854;7.944;2023-05-07T20:01:42;11.50;99.90
10247;DHT22;5168;47.854;7.944;2023-05-07T20:11:26;11.70;99.90
10247;DHT22;5168;47.854;7.944;2023-05-07T20:18:44;11.60;99.90
10247;DHT22;5168;47.854;7.944;2023-05-07T20:21:10;11.70;99.90
10247;DHT22;5168;47.854;7.944;2023-05-07T20:23:36;11.30;99.90
10247;DHT22;5168;47.854;7.944;2023-05-07T20:28:27;11.10;99.90
10247;DHT22;5168;47.854;7.944;2023-05-07T20:30:53;11.50;99.90
10247;DHT22;5168;47.854;7.944;2023-05-07T20:33:18;11.20;99.90
10247;DHT22;5168;47.854;7.944;2023-05-07T20:35:44;11.50;99.90
10247;DHT22;5168;47.854;7.944;2023-05-07T20:43:04;11.40;99.90
10247;DHT22;5168;47.854;7.944;2023-05-07T20:50:25;11.60;99.90
10247;DHT22;5168;47.854;7.944;2023-05-07T20:52:51;11.40;99.90
10247;DHT22;5168;47.854;7.944;2023-05-07T20:55:17;11.30;99.90
10247;DHT22;5168;47.854;7.944;2023-05-07T21:02:35;11.30;99.90
10247;DHT22;5168;47.854;7.944;2023-05-07T21:12:20;11.50;99.90
10247;DHT22;5168;47.854;7.944;2023-05-07T21:14:45;10.90;99.90
10247;DHT22;5168;47.854;7.944;2023-05-07T21:19:37;11.30;99.90
10247;DHT22;5168;47.854;7.944;2023-05-07T21:22:04;11.10;99.90
10247;DHT22;5168;47.854;7.944;2023-05-07T21:24:30;11.60;99.90
10247;DHT22;5168;47.854;7.944;2023-05-07T21:26:56;11.30;99.90
10247;DHT22;5168;47.854;7.944;2023-05-07T21:31:48;11.20;99.90
10247;DHT22;5168;47.854;7.944;2023-05-07T21:39:06;11.60;99.90
10247;DHT22;5168;47.854;7.944;2023-05-07T21:41:35;11.10;99.90
10247;DHT22;5168;47.854;7.944;2023-05-07T21:44:02;11.80;99.90
10247;DHT22;5168;47.854;7.944;2023-05-07T21:46:28;11.50;99.90
10247;DHT22;5168;47.854;7.944;2023-05-07T21:48:53;11.10;99.90
10247;DHT22;5168;47.854;7.944;2023-05-07T21:58:37;11.40;99.90